Ghaziabad Weather



Ghaziabad's Current Weather

Temprature 39.54o scattered clouds

scattered clouds

Rain: 0 %

Min Temprature39.54o
Max Temprature39.54o
Humidity15
Wind Speed2.96 m/h
Sun Rise05:19:48
Sun Set18:51:08
Current Time: 08-May-2021 16:14:01
Lat/Lon: 30.3982, 72.7553




Ghaziabad's Geo Location



Ghaziabad's Weather Forecast

Time Overall Temp Min Temp Max Temp Humidity Wind Speed Rain
08-May-2021 (Sat)
17:00:00 light rain 37.020 37.020 37.020 18 5.84 m/h 17 %
20:00:00 light rain 34.910 30.700 34.910 23 5.85 m/h 27 %
23:00:00 light rain 32.620 30.420 32.620 24 4.32 m/h 10 %
09-May-2021 (Sun)
02:00:00 scattered clouds 28.980 28.980 28.980 29 2.32 m/h 0 %
05:00:00 few clouds 27.660 27.660 27.660 31 1.82 m/h 0 %
08:00:00 broken clouds 33.530 33.530 33.530 21 4.14 m/h 0 %
11:00:00 broken clouds 40.000 40.000 40.000 13 4.65 m/h 0 %
14:00:00 broken clouds 42.020 42.020 42.020 9 4.28 m/h 0 %
17:00:00 broken clouds 40.860 40.860 40.860 10 3.42 m/h 0 %
20:00:00 broken clouds 34.160 34.160 34.160 17 2.61 m/h 0 %
23:00:00 scattered clouds 30.680 30.680 30.680 29 6.82 m/h 0 %
10-May-2021 (Mon)
02:00:00 clear sky 28.030 28.030 28.030 35 3.54 m/h 0 %
05:00:00 light rain 26.540 26.540 26.540 38 3.72 m/h 10 %
08:00:00 scattered clouds 33.760 33.760 33.760 21 1.83 m/h 0 %
11:00:00 scattered clouds 40.970 40.970 40.970 11 2.65 m/h 0 %
14:00:00 few clouds 43.690 43.690 43.690 8 4.34 m/h 0 %
17:00:00 scattered clouds 42.690 42.690 42.690 8 5.87 m/h 0 %
20:00:00 clear sky 32.430 32.430 32.430 23 5.5 m/h 0 %
23:00:00 scattered clouds 31.700 31.700 31.700 25 5.02 m/h 0 %
11-May-2021 (Tue)
02:00:00 overcast clouds 30.010 30.010 30.010 29 3.9 m/h 0 %
05:00:00 overcast clouds 28.580 28.580 28.580 34 3.39 m/h 0 %
08:00:00 few clouds 34.920 34.920 34.920 22 3.71 m/h 0 %
11:00:00 clear sky 41.130 41.130 41.130 14 3.67 m/h 0 %
14:00:00 clear sky 44.050 44.050 44.050 10 4.61 m/h 0 %
17:00:00 light rain 30.630 30.630 30.630 33 7.88 m/h 83 %
20:00:00 light rain 33.550 33.550 33.550 24 6.36 m/h 45 %
23:00:00 overcast clouds 30.550 30.550 30.550 35 5.73 m/h 0 %
12-May-2021 (Wed)
02:00:00 overcast clouds 30.180 30.180 30.180 36 2.19 m/h 0 %
05:00:00 overcast clouds 28.540 28.540 28.540 38 2.79 m/h 0 %
08:00:00 broken clouds 33.370 33.370 33.370 27 2.64 m/h 0 %
11:00:00 broken clouds 37.820 37.820 37.820 21 3.41 m/h 0 %
14:00:00 scattered clouds 39.990 39.990 39.990 17 4.95 m/h 0 %
17:00:00 moderate rain 22.690 22.690 22.690 68 14.32 m/h 386 %
20:00:00 moderate rain 27.050 27.050 27.050 51 6.58 m/h 1,149 %
23:00:00 light rain 26.190 26.190 26.190 54 5.3 m/h 27 %
13-May-2021 (Thu)
02:00:00 light rain 25.360 25.360 25.360 61 1.91 m/h 28 %
05:00:00 light rain 24.030 24.030 24.030 66 2.06 m/h 249 %
08:00:00 scattered clouds 27.410 27.410 27.410 51 3.98 m/h 0 %
11:00:00 few clouds 32.420 32.420 32.420 36 4.86 m/h 0 %
14:00:00 scattered clouds 35.240 35.240 35.240 28 3.18 m/h 0 %

Famous Cities (60)